sensor_id;sensor_type;location;lat;lon;timestamp;pressure;altitude;pressure_sealevel;temperature;humidity
75759;BME280;64371;47.566;19.086;2023-07-13T00:02:43;100199.13;;;23.38;75.81
75759;BME280;64371;47.566;19.086;2023-07-13T00:05:46;100188.66;;;23.33;76.36
75759;BME280;64371;47.566;19.086;2023-07-13T00:08:49;100193.94;;;23.22;75.73
75759;BME280;64371;47.566;19.086;2023-07-13T00:11:55;100193.16;;;23.22;75.76
75759;BME280;64371;47.566;19.086;2023-07-13T00:14:59;100154.47;;;23.00;77.43
75759;BME280;64371;47.566;19.086;2023-07-13T00:18:02;100127.81;;;22.58;78.73
75759;BME280;64371;47.566;19.086;2023-07-13T00:21:05;100125.53;;;22.30;80.67
75759;BME280;64371;47.566;19.086;2023-07-13T00:24:11;100115.31;;;22.17;81.64
75759;BME280;64371;47.566;19.086;2023-07-13T00:27:15;100088.59;;;21.98;84.62
75759;BME280;64371;47.566;19.086;2023-07-13T00:30:17;100074.13;;;22.06;80.60
75759;BME280;64371;47.566;19.086;2023-07-13T00:33:20;100059.84;;;21.98;79.19
75759;BME280;64371;47.566;19.086;2023-07-13T00:36:22;100045.84;;;21.86;81.70
75759;BME280;64371;47.566;19.086;2023-07-13T00:39:25;100041.94;;;21.83;80.21
75759;BME280;64371;47.566;19.086;2023-07-13T00:42:27;100031.19;;;21.83;81.00
75759;BME280;64371;47.566;19.086;2023-07-13T00:48:36;100039.44;;;21.94;80.26
75759;BME280;64371;47.566;19.086;2023-07-13T00:52:02;100028.66;;;21.90;80.72
75759;BME280;64371;47.566;19.086;2023-07-13T00:55:06;100016.66;;;22.10;79.82
75759;BME280;64371;47.566;19.086;2023-07-13T00:58:09;100002.13;;;22.44;78.06
75759;BME280;64371;47.566;19.086;2023-07-13T01:01:12;100002.84;;;22.38;77.59
75759;BME280;64371;47.566;19.086;2023-07-13T01:04:17;100024.13;;;22.24;78.98
75759;BME280;64371;47.566;19.086;2023-07-13T01:07:20;100027.03;;;22.41;80.99
75759;BME280;64371;47.566;19.086;2023-07-13T01:10:24;100007.84;;;22.43;80.96
75759;BME280;64371;47.566;19.086;2023-07-13T01:13:27;100022.72;;;22.33;81.21
75759;BME280;64371;47.566;19.086;2023-07-13T01:16:33;100034.13;;;22.23;81.55
75759;BME280;64371;47.566;19.086;2023-07-13T01:19:42;100025.31;;;22.26;82.49
75759;BME280;64371;47.566;19.086;2023-07-13T01:22:45;100033.56;;;22.11;82.69
75759;BME280;64371;47.566;19.086;2023-07-13T01:25:47;100020.44;;;22.06;82.30
75759;BME280;64371;47.566;19.086;2023-07-13T01:28:50;100023.91;;;22.06;83.35
75759;BME280;64371;47.566;19.086;2023-07-13T01:31:52;100008.91;;;21.79;84.33
75759;BME280;64371;47.566;19.086;2023-07-13T01:34:55;100022.34;;;21.79;83.80
75759;BME280;64371;47.566;19.086;2023-07-13T01:37:57;100023.81;;;21.76;85.39
75759;BME280;64371;47.566;19.086;2023-07-13T01:40:59;100019.69;;;21.82;84.50
75759;BME280;64371;47.566;19.086;2023-07-13T01:44:02;100005.66;;;21.89;85.48
75759;BME280;64371;47.566;19.086;2023-07-13T01:47:05;99989.56;;;21.66;85.43
75759;BME280;64371;47.566;19.086;2023-07-13T01:50:08;99992.56;;;21.61;87.19
75759;BME280;64371;47.566;19.086;2023-07-13T01:53:11;100003.38;;;21.68;86.59
75759;BME280;64371;47.566;19.086;2023-07-13T01:56:14;100003.75;;;21.67;85.64
75759;BME280;64371;47.566;19.086;2023-07-13T01:59:16;100002.56;;;21.64;85.91
75759;BME280;64371;47.566;19.086;2023-07-13T02:02:19;99995.53;;;21.56;86.47
75759;BME280;64371;47.566;19.086;2023-07-13T02:05:22;99985.97;;;21.55;86.40
75759;BME280;64371;47.566;19.086;2023-07-13T02:08:24;99983.56;;;21.50;84.91
75759;BME280;64371;47.566;19.086;2023-07-13T02:11:26;99985.72;;;21.41;85.26
75759;BME280;64371;47.566;19.086;2023-07-13T02:14:35;99980.19;;;21.31;86.81
75759;BME280;64371;47.566;19.086;2023-07-13T02:17:37;99992.94;;;21.37;86.39
75759;BME280;64371;47.566;19.086;2023-07-13T02:20:39;99991.22;;;21.26;87.28
75759;BME280;64371;47.566;19.086;2023-07-13T02:23:42;99984.84;;;21.11;88.40
75759;BME280;64371;47.566;19.086;2023-07-13T02:26:44;99996.06;;;21.17;89.54
75759;BME280;64371;47.566;19.086;2023-07-13T02:29:48;100009.50;;;21.20;89.88
75759;BME280;64371;47.566;19.086;2023-07-13T02:32:56;100006.94;;;21.04;90.50
75759;BME280;64371;47.566;19.086;2023-07-13T02:36:02;100007.44;;;20.91;91.59
75759;BME280;64371;47.566;19.086;2023-07-13T02:39:05;100018.22;;;20.94;92.17
75759;BME280;64371;47.566;19.086;2023-07-13T02:42:10;100023.59;;;20.94;92.03
75759;BME280;64371;47.566;19.086;2023-07-13T02:45:13;99997.72;;;20.83;92.56
75759;BME280;64371;47.566;19.086;2023-07-13T02:48:16;99990.72;;;20.78;93.37
75759;BME280;64371;47.566;19.086;2023-07-13T02:51:18;100019.91;;;20.83;93.70
75759;BME280;64371;47.566;19.086;2023-07-13T02:54:21;100004.56;;;20.80;93.51
75759;BME280;64371;47.566;19.086;2023-07-13T02:57:24;100011.88;;;20.83;94.44
75759;BME280;64371;47.566;19.086;2023-07-13T03:00:26;100006.47;;;20.80;94.21
75759;BME280;64371;47.566;19.086;2023-07-13T03:03:29;100014.34;;;20.92;94.26
75759;BME280;64371;47.566;19.086;2023-07-13T03:06:33;100025.66;;;20.82;94.80
75759;BME280;64371;47.566;19.086;2023-07-13T03:09:36;100031.41;;;20.84;95.21
75759;BME280;64371;47.566;19.086;2023-07-13T03:12:42;100029.53;;;20.84;94.85
75759;BME280;64371;47.566;19.086;2023-07-13T03:15:52;100048.47;;;21.14;93.83
75759;BME280;64371;47.566;19.086;2023-07-13T03:18:55;100056.84;;;21.12;92.52
75759;BME280;64371;47.566;19.086;2023-07-13T03:22:01;100043.41;;;21.09;92.33
75759;BME280;64371;47.566;19.086;2023-07-13T03:25:05;100047.13;;;21.04;91.68
75759;BME280;64371;47.566;19.086;2023-07-13T03:28:07;100038.38;;;21.07;91.63
75759;BME280;64371;47.566;19.086;2023-07-13T03:31:13;100037.38;;;21.15;90.46
75759;BME280;64371;47.566;19.086;2023-07-13T03:34:18;100053.25;;;21.24;89.78
75759;BME280;64371;47.566;19.086;2023-07-13T03:37:20;100044.56;;;21.31;89.65
75759;BME280;64371;47.566;19.086;2023-07-13T03:40:23;100023.81;;;21.28;89.22
75759;BME280;64371;47.566;19.086;2023-07-13T03:43:26;100022.72;;;21.32;88.83
75759;BME280;64371;47.566;19.086;2023-07-13T03:46:29;100049.06;;;21.49;88.27
75759;BME280;64371;47.566;19.086;2023-07-13T03:49:31;100057.13;;;21.49;87.82
75759;BME280;64371;47.566;19.086;2023-07-13T03:52:34;100054.69;;;21.41;88.36
75759;BME280;64371;47.566;19.086;2023-07-13T03:55:38;100059.09;;;21.30;88.87
75759;BME280;64371;47.566;19.086;2023-07-13T03:58:42;100058.56;;;21.43;88.22
75759;BME280;64371;47.566;19.086;2023-07-13T04:01:51;100048.47;;;21.59;86.56
75759;BME280;64371;47.566;19.086;2023-07-13T04:04:53;100043.53;;;21.61;85.95
75759;BME280;64371;47.566;19.086;2023-07-13T04:07:58;100048.38;;;21.78;85.27
75759;BME280;64371;47.566;19.086;2023-07-13T04:11:02;100051.84;;;21.79;85.21
75759;BME280;64371;47.566;19.086;2023-07-13T04:14:04;100073.88;;;21.88;85.15
75759;BME280;64371;47.566;19.086;2023-07-13T04:17:08;100098.63;;;22.04;84.13
75759;BME280;64371;47.566;19.086;2023-07-13T04:20:13;100121.84;;;22.16;83.57
75759;BME280;64371;47.566;19.086;2023-07-13T04:23:16;100129.44;;;22.10;82.91
75759;BME280;64371;47.566;19.086;2023-07-13T04:26:18;100137.97;;;22.16;82.90
75759;BME280;64371;47.566;19.086;2023-07-13T04:29:23;100138.56;;;22.32;82.25
75759;BME280;64371;47.566;19.086;2023-07-13T04:32:25;100143.47;;;22.26;81.66
75759;BME280;64371;47.566;19.086;2023-07-13T04:35:27;100135.41;;;22.00;82.92
75759;BME280;64371;47.566;19.086;2023-07-13T04:38:31;100145.94;;;22.12;82.83
75759;BME280;64371;47.566;19.086;2023-07-13T04:41:34;100153.00;;;22.20;81.63
75759;BME280;64371;47.566;19.086;2023-07-13T04:44:36;100146.25;;;22.07;82.13
75759;BME280;64371;47.566;19.086;2023-07-13T04:47:39;100157.09;;;22.14;81.92
75759;BME280;64371;47.566;19.086;2023-07-13T04:50:42;100175.59;;;22.19;82.68
75759;BME280;64371;47.566;19.086;2023-07-13T04:53:45;100182.25;;;22.29;82.63
75759;BME280;64371;47.566;19.086;2023-07-13T04:56:47;100184.22;;;22.32;83.53
75759;BME280;64371;47.566;19.086;2023-07-13T04:59:50;100198.56;;;22.39;82.72
75759;BME280;64371;47.566;19.086;2023-07-13T05:02:55;100213.00;;;22.31;84.13
75759;BME280;64371;47.566;19.086;2023-07-13T05:06:03;100227.75;;;22.18;84.28
75759;BME280;64371;47.566;19.086;2023-07-13T05:09:06;100245.72;;;22.14;84.26
75759;BME280;64371;47.566;19.086;2023-07-13T05:12:09;100295.28;;;21.98;84.22
75759;BME280;64371;47.566;19.086;2023-07-13T05:15:12;100319.34;;;21.37;87.17
75759;BME280;64371;47.566;19.086;2023-07-13T05:18:14;100346.53;;;21.20;89.06
75759;BME280;64371;47.566;19.086;2023-07-13T05:21:16;100351.06;;;21.00;89.39
75759;BME280;64371;47.566;19.086;2023-07-13T05:24:19;100352.63;;;21.17;91.47
75759;BME280;64371;47.566;19.086;2023-07-13T05:27:27;100335.19;;;20.76;93.18
75759;BME280;64371;47.566;19.086;2023-07-13T05:30:29;100338.38;;;20.66;94.03
75759;BME280;64371;47.566;19.086;2023-07-13T05:33:34;100340.34;;;20.53;95.67
75759;BME280;64371;47.566;19.086;2023-07-13T05:36:36;100358.25;;;20.49;97.25
75759;BME280;64371;47.566;19.086;2023-07-13T05:39:39;100362.78;;;20.33;96.65
75759;BME280;64371;47.566;19.086;2023-07-13T05:42:42;100339.41;;;20.18;96.09
75759;BME280;64371;47.566;19.086;2023-07-13T05:45:45;100323.63;;;19.85;96.38
75759;BME280;64371;47.566;19.086;2023-07-13T05:48:47;100315.53;;;19.69;98.02
75759;BME280;64371;47.566;19.086;2023-07-13T05:51:52;100318.56;;;19.68;98.25
75759;BME280;64371;47.566;19.086;2023-07-13T05:54:55;100328.47;;;19.67;100.00
75759;BME280;64371;47.566;19.086;2023-07-13T05:57:57;100322.38;;;19.55;99.54
75759;BME280;64371;47.566;19.086;2023-07-13T06:01:08;100318.41;;;19.49;99.56
75759;BME280;64371;47.566;19.086;2023-07-13T06:04:11;100315.75;;;19.37;98.80
75759;BME280;64371;47.566;19.086;2023-07-13T06:07:17;100310.06;;;19.38;99.45
75759;BME280;64371;47.566;19.086;2023-07-13T06:10:19;100285.25;;;19.13;99.33
75759;BME280;64371;47.566;19.086;2023-07-13T06:13:21;100273.78;;;19.13;100.00
75759;BME280;64371;47.566;19.086;2023-07-13T06:16:24;100244.50;;;19.04;100.00
75759;BME280;64371;47.566;19.086;2023-07-13T06:19:26;100143.97;;;18.84;100.00
75759;BME280;64371;47.566;19.086;2023-07-13T06:22:28;99952.47;;;18.73;100.00
75759;BME280;64371;47.566;19.086;2023-07-13T06:25:32;99997.53;;;18.74;100.00
75759;BME280;64371;47.566;19.086;2023-07-13T06:28:35;100023.53;;;18.77;100.00
75759;BME280;64371;47.566;19.086;2023-07-13T06:31:37;99910.09;;;18.71;100.00
75759;BME280;64371;47.566;19.086;2023-07-13T06:34:40;99915.81;;;19.01;100.00
75759;BME280;64371;47.566;19.086;2023-07-13T06:37:43;99956.47;;;19.10;100.00
75759;BME280;64371;47.566;19.086;2023-07-13T06:40:46;99922.34;;;19.19;98.33
75759;BME280;64371;47.566;19.086;2023-07-13T06:43:48;99944.50;;;19.51;99.69
75759;BME280;64371;47.566;19.086;2023-07-13T06:46:51;99980.50;;;19.72;95.95
75759;BME280;64371;47.566;19.086;2023-07-13T06:49:53;99969.59;;;19.97;92.21
75759;BME280;64371;47.566;19.086;2023-07-13T06:52:55;99967.53;;;20.44;95.08
75759;BME280;64371;47.566;19.086;2023-07-13T06:56:01;99946.91;;;20.67;91.53
75759;BME280;64371;47.566;19.086;2023-07-13T06:59:03;99941.69;;;20.97;90.04
75759;BME280;64371;47.566;19.086;2023-07-13T07:02:06;99963.34;;;21.30;86.41
75759;BME280;64371;47.566;19.086;2023-07-13T07:05:08;99967.78;;;21.45;84.86
75759;BME280;64371;47.566;19.086;2023-07-13T07:08:10;99974.72;;;21.99;81.36
75759;BME280;64371;47.566;19.086;2023-07-13T07:11:17;99997.50;;;22.41;81.02
75759;BME280;64371;47.566;19.086;2023-07-13T07:14:20;100016.91;;;22.94;78.20
75759;BME280;64371;47.566;19.086;2023-07-13T07:17:22;100108.75;;;23.77;76.98
75759;BME280;64371;47.566;19.086;2023-07-13T07:20:26;100127.16;;;23.31;75.71
75759;BME280;64371;47.566;19.086;2023-07-13T07:23:29;100123.03;;;23.81;74.39
75759;BME280;64371;47.566;19.086;2023-07-13T07:26:31;100135.56;;;24.07;75.25
75759;BME280;64371;47.566;19.086;2023-07-13T07:29:45;100147.88;;;24.08;74.92
75759;BME280;64371;47.566;19.086;2023-07-13T07:33:05;100149.09;;;24.17;72.62
75759;BME280;64371;47.566;19.086;2023-07-13T07:36:08;100138.44;;;23.84;73.62
75759;BME280;64371;47.566;19.086;2023-07-13T07:39:13;100165.88;;;23.56;75.21
75759;BME280;64371;47.566;19.086;2023-07-13T07:42:16;100163.25;;;23.30;76.61
75759;BME280;64371;47.566;19.086;2023-07-13T07:45:19;100182.06;;;23.27;76.67
75759;BME280;64371;47.566;19.086;2023-07-13T07:48:21;100179.88;;;24.74;71.04
75759;BME280;64371;47.566;19.086;2023-07-13T07:51:24;100190.34;;;24.86;69.13
75759;BME280;64371;47.566;19.086;2023-07-13T07:54:26;100187.41;;;24.48;68.58
75759;BME280;64371;47.566;19.086;2023-07-13T07:57:49;100196.34;;;24.59;68.81
75759;BME280;64371;47.566;19.086;2023-07-13T08:01:02;100196.00;;;25.46;66.43
75759;BME280;64371;47.566;19.086;2023-07-13T08:04:07;100193.41;;;26.17;63.69
75759;BME280;64371;47.566;19.086;2023-07-13T08:07:32;100203.81;;;26.11;62.32
75759;BME280;64371;47.566;19.086;2023-07-13T08:10:36;100187.19;;;26.45;62.36
75759;BME280;64371;47.566;19.086;2023-07-13T08:13:39;100186.16;;;27.29;59.33
75759;BME280;64371;47.566;19.086;2023-07-13T08:16:41;100181.75;;;26.48;61.81
75759;BME280;64371;47.566;19.086;2023-07-13T08:19:44;100184.06;;;26.60;61.49
75759;BME280;64371;47.566;19.086;2023-07-13T08:22:46;100178.81;;;27.26;59.26
75759;BME280;64371;47.566;19.086;2023-07-13T08:25:53;100193.91;;;27.89;57.44
75759;BME280;64371;47.566;19.086;2023-07-13T08:28:55;100201.44;;;28.18;56.25
75759;BME280;64371;47.566;19.086;2023-07-13T08:31:58;100197.53;;;28.64;55.59
75759;BME280;64371;47.566;19.086;2023-07-13T08:35:00;100208.03;;;28.62;56.02
75759;BME280;64371;47.566;19.086;2023-07-13T08:38:03;100197.88;;;27.77;55.75
75759;BME280;64371;47.566;19.086;2023-07-13T08:41:17;100202.38;;;28.42;54.44
75759;BME280;64371;47.566;19.086;2023-07-13T08:48:09;100194.16;;;26.31;61.14
75759;BME280;64371;47.566;19.086;2023-07-13T08:54:38;100203.25;;;25.32;62.67
75759;BME280;64371;47.566;19.086;2023-07-13T08:57:43;100197.16;;;25.45;64.24
75759;BME280;64371;47.566;19.086;2023-07-13T09:00:56;100199.09;;;25.48;63.86
75759;BME280;64371;47.566;19.086;2023-07-13T09:10:44;100202.28;;;24.82;65.85
75759;BME280;64371;47.566;19.086;2023-07-13T09:14:13;100194.22;;;24.92;65.13
75759;BME280;64371;47.566;19.086;2023-07-13T09:17:27;100194.53;;;25.77;62.90
75759;BME280;64371;47.566;19.086;2023-07-13T09:21:02;100213.47;;;26.30;61.42
75759;BME280;64371;47.566;19.086;2023-07-13T09:24:41;100203.03;;;26.07;61.57
75759;BME280;64371;47.566;19.086;2023-07-13T09:27:53;100203.97;;;25.15;63.35
75759;BME280;64371;47.566;19.086;2023-07-13T09:31:01;100201.41;;;25.60;62.85
75759;BME280;64371;47.566;19.086;2023-07-13T09:34:13;100203.72;;;25.44;62.20
75759;BME280;64371;47.566;19.086;2023-07-13T09:37:15;100197.22;;;25.91;61.32
75759;BME280;64371;47.566;19.086;2023-07-13T09:40:25;100201.78;;;26.72;59.25
75759;BME280;64371;47.566;19.086;2023-07-13T09:43:30;100210.72;;;27.66;56.54
75759;BME280;64371;47.566;19.086;2023-07-13T09:46:32;100219.75;;;28.48;54.36
75759;BME280;64371;47.566;19.086;2023-07-13T09:49:36;100233.25;;;28.07;54.88
75759;BME280;64371;47.566;19.086;2023-07-13T09:52:45;100226.22;;;27.62;56.17
75759;BME280;64371;47.566;19.086;2023-07-13T09:55:48;100224.81;;;27.29;56.52
75759;BME280;64371;47.566;19.086;2023-07-13T09:58:55;100228.28;;;27.99;55.10
75759;BME280;64371;47.566;19.086;2023-07-13T10:01:59;100231.88;;;27.82;54.58
75759;BME280;64371;47.566;19.086;2023-07-13T10:05:10;100216.75;;;28.80;52.78
75759;BME280;64371;47.566;19.086;2023-07-13T10:08:30;100221.22;;;28.93;51.45
75759;BME280;64371;47.566;19.086;2023-07-13T10:11:36;100218.78;;;29.03;52.44
75759;BME280;64371;47.566;19.086;2023-07-13T10:14:39;100222.75;;;28.61;53.35
75759;BME280;64371;47.566;19.086;2023-07-13T10:17:44;100217.84;;;29.50;52.04
75759;BME280;64371;47.566;19.086;2023-07-13T10:20:47;100216.06;;;29.06;51.52
75759;BME280;64371;47.566;19.086;2023-07-13T10:23:59;100215.47;;;29.52;50.37
75759;BME280;64371;47.566;19.086;2023-07-13T10:27:21;100215.06;;;29.80;50.79
75759;BME280;64371;47.566;19.086;2023-07-13T10:30:31;100225.69;;;29.41;50.49
75759;BME280;64371;47.566;19.086;2023-07-13T10:33:35;100222.31;;;29.00;50.84
75759;BME280;64371;47.566;19.086;2023-07-13T10:36:46;100225.00;;;29.03;51.00
75759;BME280;64371;47.566;19.086;2023-07-13T10:39:50;100230.34;;;29.10;51.18
75759;BME280;64371;47.566;19.086;2023-07-13T10:42:56;100227.72;;;28.66;52.00
75759;BME280;64371;47.566;19.086;2023-07-13T10:46:00;100223.44;;;27.73;54.16
75759;BME280;64371;47.566;19.086;2023-07-13T10:49:05;100215.63;;;27.85;53.77
75759;BME280;64371;47.566;19.086;2023-07-13T10:59:11;100242.28;;;28.82;51.87
75759;BME280;64371;47.566;19.086;2023-07-13T11:02:25;100217.28;;;27.65;53.90
75759;BME280;64371;47.566;19.086;2023-07-13T11:05:32;100218.66;;;27.91;53.17
75759;BME280;64371;47.566;19.086;2023-07-13T11:08:52;100205.88;;;28.39;51.35
75759;BME280;64371;47.566;19.086;2023-07-13T11:11:58;100202.97;;;28.19;52.05
75759;BME280;64371;47.566;19.086;2023-07-13T11:15:04;100223.56;;;28.54;51.30
75759;BME280;64371;47.566;19.086;2023-07-13T11:18:21;100231.19;;;29.04;48.76
75759;BME280;64371;47.566;19.086;2023-07-13T11:21:27;100215.47;;;28.51;49.46
75759;BME280;64371;47.566;19.086;2023-07-13T11:25:01;100231.28;;;28.63;49.23
75759;BME280;64371;47.566;19.086;2023-07-13T11:31:14;100212.16;;;28.33;50.30
75759;BME280;64371;47.566;19.086;2023-07-13T11:34:44;100212.16;;;28.73;49.83
75759;BME280;64371;47.566;19.086;2023-07-13T11:37:47;100216.94;;;28.18;51.36
75759;BME280;64371;47.566;19.086;2023-07-13T11:40:53;100223.81;;;28.70;48.04
75759;BME280;64371;47.566;19.086;2023-07-13T11:44:19;100214.22;;;28.59;48.15
75759;BME280;64371;47.566;19.086;2023-07-13T11:47:22;100210.16;;;28.40;49.03
75759;BME280;64371;47.566;19.086;2023-07-13T11:50:25;100219.63;;;28.59;49.61
75759;BME280;64371;47.566;19.086;2023-07-13T11:53:29;100209.78;;;28.75;49.27
75759;BME280;64371;47.566;19.086;2023-07-13T11:56:36;100202.53;;;29.33;48.59
75759;BME280;64371;47.566;19.086;2023-07-13T11:59:40;100205.38;;;29.52;47.64
75759;BME280;64371;47.566;19.086;2023-07-13T12:02:45;100220.88;;;29.25;47.14
75759;BME280;64371;47.566;19.086;2023-07-13T12:06:06;100215.47;;;28.88;47.25
75759;BME280;64371;47.566;19.086;2023-07-13T12:09:27;100215.19;;;27.90;49.20
75759;BME280;64371;47.566;19.086;2023-07-13T12:12:30;100209.50;;;28.25;49.14
75759;BME280;64371;47.566;19.086;2023-07-13T12:15:43;100205.50;;;29.12;47.83
75759;BME280;64371;47.566;19.086;2023-07-13T12:18:47;100196.19;;;29.13;46.80
75759;BME280;64371;47.566;19.086;2023-07-13T12:21:53;100189.63;;;29.10;47.65
75759;BME280;64371;47.566;19.086;2023-07-13T12:24:56;100206.88;;;28.93;48.34
75759;BME280;64371;47.566;19.086;2023-07-13T12:27:58;100206.16;;;28.89;48.39
75759;BME280;64371;47.566;19.086;2023-07-13T12:31:06;100202.31;;;28.86;48.87
75759;BME280;64371;47.566;19.086;2023-07-13T12:34:20;100189.16;;;29.45;47.34
75759;BME280;64371;47.566;19.086;2023-07-13T12:37:24;100194.09;;;28.93;48.61
75759;BME280;64371;47.566;19.086;2023-07-13T12:40:34;100199.47;;;28.63;49.12
75759;BME280;64371;47.566;19.086;2023-07-13T12:43:38;100185.34;;;28.79;48.63
75759;BME280;64371;47.566;19.086;2023-07-13T12:46:54;100186.50;;;28.41;49.02
75759;BME280;64371;47.566;19.086;2023-07-13T12:49:59;100191.13;;;28.44;49.81
75759;BME280;64371;47.566;19.086;2023-07-13T12:53:05;100171.94;;;28.65;49.14
75759;BME280;64371;47.566;19.086;2023-07-13T12:56:21;100183.25;;;28.90;48.45
75759;BME280;64371;47.566;19.086;2023-07-13T12:59:29;100183.78;;;28.81;48.54
75759;BME280;64371;47.566;19.086;2023-07-13T13:02:35;100188.22;;;28.65;48.57
75759;BME280;64371;47.566;19.086;2023-07-13T13:05:38;100185.97;;;28.90;48.40
75759;BME280;64371;47.566;19.086;2023-07-13T13:08:41;100193.19;;;29.04;48.13
75759;BME280;64371;47.566;19.086;2023-07-13T13:11:45;100192.88;;;28.98;47.46
75759;BME280;64371;47.566;19.086;2023-07-13T13:14:48;100190.13;;;28.68;47.42
75759;BME280;64371;47.566;19.086;2023-07-13T13:17:51;100181.22;;;28.67;47.83
75759;BME280;64371;47.566;19.086;2023-07-13T13:20:54;100167.00;;;28.53;46.91
75759;BME280;64371;47.566;19.086;2023-07-13T13:23:56;100168.88;;;28.63;47.00
75759;BME280;64371;47.566;19.086;2023-07-13T13:27:00;100177.16;;;28.82;47.60
75759;BME280;64371;47.566;19.086;2023-07-13T13:30:02;100165.31;;;28.69;47.13
75759;BME280;64371;47.566;19.086;2023-07-13T13:33:10;100162.22;;;28.67;46.72
75759;BME280;64371;47.566;19.086;2023-07-13T13:36:16;100171.25;;;29.21;46.01
75759;BME280;64371;47.566;19.086;2023-07-13T13:42:23;100163.66;;;28.75;46.79
75759;BME280;64371;47.566;19.086;2023-07-13T13:45:27;100151.84;;;28.92;47.12
75759;BME280;64371;47.566;19.086;2023-07-13T13:48:34;100153.38;;;28.93;46.72
75759;BME280;64371;47.566;19.086;2023-07-13T13:51:37;100157.66;;;29.25;45.49
75759;BME280;64371;47.566;19.086;2023-07-13T13:54:40;100157.78;;;28.84;46.33
75759;BME280;64371;47.566;19.086;2023-07-13T13:57:43;100154.22;;;29.21;46.74
75759;BME280;64371;47.566;19.086;2023-07-13T14:00:46;100156.03;;;29.31;46.30
75759;BME280;64371;47.566;19.086;2023-07-13T14:03:49;100156.72;;;29.35;45.96
75759;BME280;64371;47.566;19.086;2023-07-13T14:06:53;100161.91;;;29.52;45.73
75759;BME280;64371;47.566;19.086;2023-07-13T14:09:57;100166.81;;;29.04;47.19
75759;BME280;64371;47.566;19.086;2023-07-13T14:13:00;100171.06;;;29.05;46.94
75759;BME280;64371;47.566;19.086;2023-07-13T14:16:04;100174.00;;;29.18;46.59
75759;BME280;64371;47.566;19.086;2023-07-13T14:19:08;100170.25;;;29.38;46.88
75759;BME280;64371;47.566;19.086;2023-07-13T14:22:12;100159.81;;;29.37;46.86
75759;BME280;64371;47.566;19.086;2023-07-13T14:25:16;100156.78;;;29.31;46.99
75759;BME280;64371;47.566;19.086;2023-07-13T14:28:26;100173.97;;;29.21;45.68
75759;BME280;64371;47.566;19.086;2023-07-13T14:31:29;100169.53;;;29.34;46.35
75759;BME280;64371;47.566;19.086;2023-07-13T14:34:32;100179.09;;;29.16;46.55
75759;BME280;64371;47.566;19.086;2023-07-13T14:37:35;100182.56;;;28.82;47.96
75759;BME280;64371;47.566;19.086;2023-07-13T14:40:37;100190.56;;;28.97;48.10
75759;BME280;64371;47.566;19.086;2023-07-13T14:43:43;100192.69;;;29.12;46.53
75759;BME280;64371;47.566;19.086;2023-07-13T14:46:46;100198.53;;;29.11;46.33
75759;BME280;64371;47.566;19.086;2023-07-13T14:49:49;100196.31;;;28.68;46.64
75759;BME280;64371;47.566;19.086;2023-07-13T14:52:51;100205.38;;;28.92;46.98
75759;BME280;64371;47.566;19.086;2023-07-13T14:55:54;100198.41;;;29.21;46.20
75759;BME280;64371;47.566;19.086;2023-07-13T14:58:56;100218.59;;;29.20;46.69
75759;BME280;64371;47.566;19.086;2023-07-13T15:01:59;100198.19;;;29.09;46.83
75759;BME280;64371;47.566;19.086;2023-07-13T15:05:01;100202.66;;;28.92;47.04
75759;BME280;64371;47.566;19.086;2023-07-13T15:08:05;100200.78;;;29.19;47.04
75759;BME280;64371;47.566;19.086;2023-07-13T15:11:08;100200.31;;;28.90;47.38
75759;BME280;64371;47.566;19.086;2023-07-13T15:14:13;100202.22;;;28.60;47.54
75759;BME280;64371;47.566;19.086;2023-07-13T15:17:36;100220.72;;;28.68;48.15
75759;BME280;64371;47.566;19.086;2023-07-13T15:20:39;100225.53;;;28.91;46.44
75759;BME280;64371;47.566;19.086;2023-07-13T15:23:41;100226.41;;;28.44;47.68
75759;BME280;64371;47.566;19.086;2023-07-13T15:26:43;100212.00;;;28.50;47.43
75759;BME280;64371;47.566;19.086;2023-07-13T15:29:47;100202.50;;;28.72;47.55
75759;BME280;64371;47.566;19.086;2023-07-13T15:32:49;100215.09;;;28.49;47.58
75759;BME280;64371;47.566;19.086;2023-07-13T15:35:52;100215.34;;;28.65;47.37
75759;BME280;64371;47.566;19.086;2023-07-13T15:38:56;100214.28;;;28.52;46.81
75759;BME280;64371;47.566;19.086;2023-07-13T15:41:58;100208.91;;;28.48;47.35
75759;BME280;64371;47.566;19.086;2023-07-13T15:45:01;100200.59;;;28.25;47.50
75759;BME280;64371;47.566;19.086;2023-07-13T15:48:23;100194.81;;;28.19;47.45
75759;BME280;64371;47.566;19.086;2023-07-13T15:51:28;100199.81;;;28.24;47.70
75759;BME280;64371;47.566;19.086;2023-07-13T15:54:31;100191.31;;;28.22;47.83
75759;BME280;64371;47.566;19.086;2023-07-13T15:57:35;100190.13;;;28.27;48.02
75759;BME280;64371;47.566;19.086;2023-07-13T16:00:38;100189.81;;;28.18;47.86
75759;BME280;64371;47.566;19.086;2023-07-13T16:03:44;100181.81;;;28.04;47.88
75759;BME280;64371;47.566;19.086;2023-07-13T16:06:47;100191.19;;;28.37;47.99
75759;BME280;64371;47.566;19.086;2023-07-13T16:09:50;100199.84;;;28.65;47.94
75759;BME280;64371;47.566;19.086;2023-07-13T16:12:52;100217.66;;;28.66;47.13
75759;BME280;64371;47.566;19.086;2023-07-13T16:15:54;100226.97;;;28.65;47.44
75759;BME280;64371;47.566;19.086;2023-07-13T16:19:02;100239.78;;;28.61;47.30
75759;BME280;64371;47.566;19.086;2023-07-13T16:22:17;100238.25;;;28.57;48.67
75759;BME280;64371;47.566;19.086;2023-07-13T16:25:23;100230.63;;;28.48;47.61
75759;BME280;64371;47.566;19.086;2023-07-13T16:28:26;100243.84;;;28.39;48.97